EVRALDRI

Guest
Details From EVRA - Riga Intl
To LDRI - RIJEKA
Flight Number -
Tags decoded
Created
Modified
Stats Distance 812 nm / 1,503 km
Max Altitude 0 ft / 0 m
Waypoints 7
Social Downloads 0
Likes 0
Share VATSIM

Download

Looking for another format? Having issues loading an existing format? Contact us
Advertisement - Login to hide

Notes

Requested: EVRA GUNTA HLV GRZ IDRIG NANIS LDRI

Route

EVRA GUNTA HLV GRZ IDRIG NANIS LDRI

ID Type Via Altitude Latitude Longitude Leg Dist Tot Dist Heading (true) Name
O EVRA APT - 0 ft / 0 m 56.92366˚ 23.97119˚ - 0 nm - Riga Intl
GUNTA FIX - 0 ft / 0 m 56.37139˚ 23.75556˚ 33 nm 33 nm 192° / 192° -
HLV NDB - 0 ft / 0 m 49.32285˚ 17.52840˚ 479 nm 513 nm 211° / 206° HOLESOV NDB
GRZ VOR - 0 ft / 0 m 46.95537˚ 15.44943˚ 164 nm 678 nm 211° / 210° GRAZ VOR-DME
IDRIG FIX - 0 ft / 0 m 45.95011˚ 14.08501˚ 82 nm 760 nm 224° / 223° -
NANIS FIX - 0 ft / 0 m 45.79099˚ 14.03297˚ 9 nm 770 nm 193° / 193° -
O LDRI APT - 0 ft / 0 m 45.21663˚ 14.57081˚ 41 nm 811 nm 147° / 147° RIJEKA

Altitude Profile

Advertisement - Login to hide

Weather


0- 5 10 15 20 25 30 35+ Temperature / ° C

Clouds and Precipitation
Forecast for 2018-05-27 00:00 UTC. Updated 27 minutes ago

Ground ~20,000 ft ~40,000 ft Winds

EVRA

Details ICAO EVRA (RIX)
Name Riga Intl
Region Latvia
Timezone Europe/Riga (UTC+3.0)
Stats Elevation 34 ft / 10 m (AMSL)
Location 56.923662° 23.971193°
Runways 1
Magnetic Variation 7.720° E

METAR

EVRA 262320Z 00000KT 8000 NSC 12/11 Q1026 NOSIG

Decode

TAF

TAF TAF EVRA 262000Z 2621/2721 VRB02KT CAVOK PROB40 TEMPO 2623/2703 0600 FG SCT002 BECMG 2705/2707 35007KT

Decode

Departure Runways

ID Width Length Bearing (true) Bearing (mag) Surface Threshold Offset Overrun Length
18 148 ft / 45 m 8,358 ft / 2,548 m 185.15° 177.43° Asphalt 0 ft / 0 m 170 ft / 52 m
36 148 ft / 45 m 8,358 ft / 2,548 m 5.14° 357.42° Asphalt 0 ft / 0 m 170 ft / 52 m

LDRI

Details ICAO LDRI (RJK)
Name RIJEKA
Region Croatia
Timezone Europe/Zagreb (UTC+2.0)
Stats Elevation 278 ft / 85 m (AMSL)
Location 45.216635° 14.570813°
Runways 1
Magnetic Variation 3.673° E

METAR

LDRI 262330Z 05004KT 020V110 CAVOK 20/14 Q1019

Decode

TAF

TAF LDRI 261725Z 2618/2718 VRB02KT CAVOK TX28/2714Z TN19/2703Z BECMG 2710/2712 32007KT BECMG 2716/2718 VRB02KT

Decode

Destination Runways

ID Width Length Bearing (true) Bearing (mag) Surface Threshold Offset Overrun Length
14 148 ft / 45 m 8,161 ft / 2,488 m 143.77° 140.10° Asphalt 0 ft / 0 m 0 ft / 0 m
32 148 ft / 45 m 8,161 ft / 2,488 m 323.78° 320.11° Asphalt 0 ft / 0 m 0 ft / 0 m

Approach Navaids

Runway Type Ident Frequency Range Bearing (true) Bearing (mag) Slope Elevation
14 Localiser IKR 108.50 MHz 25 nm / 46 km 143.68° 140.01° - 200 ft / 61 m (AMSL)
14 Glidescope IKR 108.50 MHz 25 nm / 46 km 143.68° 140.01° 3.00° 259 ft / 79 m (AMSL)

Popular Alternatives